createdAt,value
2023-02-09T00:00:13.258Z,4.15
2023-02-09T00:02:43.389Z,4.75
2023-02-09T00:05:13.367Z,3.80
2023-02-09T00:07:42.611Z,3.85
2023-02-09T00:10:11.901Z,3.63
2023-02-09T00:13:00.555Z,4.25
2023-02-09T00:15:29.901Z,4.15
2023-02-09T00:17:59.140Z,4.28
2023-02-09T00:20:28.460Z,4.78
2023-02-09T00:22:57.646Z,4.13
2023-02-09T00:25:26.903Z,3.97
2023-02-09T00:27:56.220Z,3.65
2023-02-09T00:30:26.352Z,3.63
2023-02-09T00:32:55.585Z,4.30
2023-02-09T00:35:24.878Z,3.42
2023-02-09T00:37:54.223Z,4.57
2023-02-09T00:40:23.486Z,3.63
2023-02-09T00:42:52.707Z,5.20
2023-02-09T00:45:21.942Z,3.33
2023-02-09T00:47:51.111Z,4.35
2023-02-09T00:50:20.262Z,4.70
2023-02-09T00:52:49.672Z,4.40
2023-02-09T00:55:19.321Z,4.50
2023-02-09T00:57:48.640Z,4.45
2023-02-09T01:00:20.736Z,4.28
2023-02-09T01:02:50.131Z,4.53
2023-02-09T01:05:19.490Z,3.83
2023-02-09T01:07:48.914Z,4.15
2023-02-09T01:10:18.234Z,3.83
2023-02-09T01:12:47.927Z,3.85
2023-02-09T01:15:17.418Z,4.05
2023-02-09T01:17:46.681Z,4.60
2023-02-09T01:20:16.752Z,4.50
2023-02-09T01:22:45.922Z,4.45
2023-02-09T01:25:15.653Z,3.72
2023-02-09T01:27:44.900Z,3.30
2023-02-09T01:30:15.081Z,4.25
2023-02-09T01:32:44.465Z,3.15
2023-02-09T01:35:13.709Z,4.32
2023-02-09T01:37:42.993Z,4.65
2023-02-09T01:40:12.541Z,4.45
2023-02-09T01:42:42.197Z,3.72
2023-02-09T01:45:56.099Z,3.95
2023-02-09T01:48:30.911Z,4.25
2023-02-09T01:51:01.522Z,4.32
2023-02-09T01:53:30.840Z,4.28
2023-02-09T01:56:20.484Z,4.05
2023-02-09T01:58:50.325Z,4.28
2023-02-09T02:01:20.771Z,4.55
2023-02-09T02:03:50.307Z,4.63
2023-02-09T02:06:20.262Z,4.15
2023-02-09T02:09:01.141Z,4.20
2023-02-09T02:11:32.873Z,4.63
2023-02-09T02:14:02.179Z,4.03
2023-02-09T02:17:06.897Z,3.80
2023-02-09T02:20:00.572Z,4.72
2023-02-09T02:22:57.575Z,4.07
2023-02-09T02:26:13.046Z,4.65
2023-02-09T02:29:03.995Z,4.57
2023-02-09T02:32:24.218Z,3.67
2023-02-09T02:35:34.766Z,3.55
2023-02-09T02:38:19.928Z,4.18
2023-02-09T02:41:01.478Z,4.22
2023-02-09T02:44:22.492Z,3.65
2023-02-09T02:47:01.365Z,4.32
2023-02-09T02:49:42.677Z,4.93
2023-02-09T02:52:12.355Z,3.97
2023-02-09T02:54:49.312Z,4.65
2023-02-09T02:57:24.375Z,3.92
2023-02-09T03:00:10.307Z,3.78
2023-02-09T03:02:53.590Z,3.83
2023-02-09T03:05:25.369Z,3.58
2023-02-09T03:07:54.893Z,4.00
2023-02-09T03:10:34.691Z,4.85
2023-02-09T03:13:41.966Z,3.88
2023-02-09T03:16:28.827Z,4.72
2023-02-09T03:19:10.267Z,5.05
2023-02-09T03:21:55.831Z,4.13
2023-02-09T03:24:46.448Z,4.50
2023-02-09T03:27:19.793Z,4.25
2023-02-09T03:29:55.128Z,3.92
2023-02-09T03:32:26.291Z,4.20
2023-02-09T03:34:57.281Z,4.57
2023-02-09T03:37:26.844Z,4.57
2023-02-09T03:39:56.128Z,3.78
2023-02-09T03:42:25.570Z,4.47
2023-02-09T03:44:54.734Z,3.72
2023-02-09T03:47:24.197Z,4.80
2023-02-09T03:49:53.574Z,4.05
2023-02-09T03:52:22.743Z,4.82
2023-02-09T03:54:52.094Z,4.40
2023-02-09T03:57:21.344Z,4.82
2023-02-09T03:59:50.533Z,4.10
2023-02-09T04:02:19.815Z,3.72
2023-02-09T04:04:49.466Z,4.75
2023-02-09T04:07:18.757Z,4.93
2023-02-09T04:09:48.197Z,5.22
2023-02-09T04:12:17.386Z,5.22
2023-02-09T04:14:46.633Z,3.45
2023-02-09T04:17:16.119Z,4.32
2023-02-09T04:19:45.336Z,4.13
2023-02-09T04:22:14.517Z,4.05
2023-02-09T04:24:46.534Z,5.05
2023-02-09T04:27:15.796Z,4.38
2023-02-09T04:29:45.182Z,4.13
2023-02-09T04:32:14.428Z,4.85
2023-02-09T04:34:43.606Z,3.40
2023-02-09T04:37:12.876Z,3.72
2023-02-09T04:39:42.048Z,3.65
2023-02-09T04:42:11.269Z,4.00
2023-02-09T04:44:40.445Z,4.15
2023-02-09T04:47:09.682Z,4.25
2023-02-09T04:49:38.933Z,4.20
2023-02-09T04:52:08.292Z,4.45
2023-02-09T04:54:37.488Z,4.03
2023-02-09T04:57:25.146Z,3.55
2023-02-09T04:59:54.363Z,3.53
2023-02-09T05:02:23.641Z,3.20
2023-02-09T05:04:52.865Z,3.42
2023-02-09T05:07:23.265Z,4.47
2023-02-09T05:09:53.032Z,4.05
2023-02-09T05:12:22.288Z,4.55
2023-02-09T05:14:51.453Z,4.07
2023-02-09T05:17:21.258Z,4.70
2023-02-09T05:19:50.532Z,4.63
2023-02-09T05:22:19.812Z,4.43
2023-02-09T05:24:49.159Z,4.05
2023-02-09T05:27:18.644Z,4.35
2023-02-09T05:29:47.933Z,3.72
2023-02-09T05:32:17.268Z,4.25
2023-02-09T05:34:46.792Z,3.88
2023-02-09T05:37:16.005Z,4.10
2023-02-09T05:39:45.269Z,4.30
2023-02-09T05:42:17.132Z,3.42
2023-02-09T05:44:49.984Z,4.13
2023-02-09T05:47:22.403Z,4.60
2023-02-09T05:49:52.831Z,4.00
2023-02-09T05:52:22.630Z,4.15
2023-02-09T05:54:51.906Z,3.33
2023-02-09T05:57:21.064Z,4.18
2023-02-09T05:59:50.272Z,4.28
2023-02-09T06:02:19.581Z,4.55
2023-02-09T06:04:48.855Z,4.63
2023-02-09T06:07:18.023Z,4.75
2023-02-09T06:09:47.244Z,4.38
2023-02-09T06:12:16.511Z,4.32
2023-02-09T06:14:45.859Z,3.80
2023-02-09T06:17:15.053Z,4.88
2023-02-09T06:19:44.240Z,3.88
2023-02-09T06:22:13.446Z,5.38
2023-02-09T06:24:42.660Z,4.45
2023-02-09T06:27:13.453Z,4.68
2023-02-09T06:29:42.687Z,4.03
2023-02-09T06:32:14.782Z,3.85
2023-02-09T06:34:43.968Z,4.90
2023-02-09T06:37:13.229Z,3.95
2023-02-09T06:39:42.420Z,4.15
2023-02-09T06:42:11.589Z,4.80
2023-02-09T06:44:40.823Z,4.40
2023-02-09T06:47:10.338Z,4.93
2023-02-09T06:49:39.550Z,4.88
2023-02-09T06:52:08.843Z,4.43
2023-02-09T06:54:38.013Z,3.95
2023-02-09T06:57:07.212Z,3.85
2023-02-09T06:59:36.372Z,4.43
2023-02-09T07:02:05.586Z,3.83
2023-02-09T07:04:34.833Z,4.32
2023-02-09T07:07:04.047Z,4.93
2023-02-09T07:09:33.456Z,3.95
2023-02-09T07:12:02.753Z,4.95
2023-02-09T07:14:31.934Z,4.65
2023-02-09T07:17:01.416Z,3.85
2023-02-09T07:19:30.790Z,3.83
2023-02-09T07:22:00.031Z,3.95
2023-02-09T07:24:29.280Z,4.75
2023-02-09T07:26:58.442Z,3.90
2023-02-09T07:29:27.792Z,4.88
2023-02-09T07:31:57.009Z,4.20
2023-02-09T07:34:26.332Z,3.97
2023-02-09T07:36:55.506Z,4.07
2023-02-09T07:39:24.894Z,3.70
2023-02-09T07:41:54.124Z,3.97
2023-02-09T07:44:26.033Z,3.97
2023-02-09T07:46:55.286Z,3.85
2023-02-09T07:49:24.529Z,3.45
2023-02-09T07:51:53.817Z,4.07
2023-02-09T07:54:23.082Z,4.05
2023-02-09T07:56:55.270Z,3.33
2023-02-09T07:59:24.558Z,3.85
2023-02-09T08:01:53.773Z,3.83
2023-02-09T08:04:24.045Z,3.20
2023-02-09T08:06:53.413Z,3.92
2023-02-09T08:09:22.632Z,3.75
2023-02-09T08:12:03.235Z,3.08
2023-02-09T08:14:43.567Z,3.42
2023-02-09T08:17:27.979Z,3.45
2023-02-09T08:20:12.158Z,3.53
2023-02-09T08:22:46.962Z,4.18
2023-02-09T08:25:20.930Z,3.45
2023-02-09T08:27:54.477Z,3.38
2023-02-09T08:30:23.874Z,3.42
2023-02-09T08:32:53.166Z,2.42
2023-02-09T08:35:22.421Z,3.75
2023-02-09T08:37:51.652Z,3.22
2023-02-09T08:40:20.927Z,3.60
2023-02-09T08:42:50.147Z,2.88
2023-02-09T08:45:19.445Z,2.70
2023-02-09T08:47:48.782Z,3.00
2023-02-09T08:50:18.226Z,2.17
2023-02-09T08:52:47.632Z,2.55
2023-02-09T08:55:16.899Z,2.25
2023-02-09T08:57:46.196Z,2.67
2023-02-09T09:00:16.986Z,2.50
2023-02-09T09:02:46.220Z,2.75
2023-02-09T09:05:16.010Z,2.45
2023-02-09T09:07:45.397Z,2.25
2023-02-09T09:10:14.736Z,2.33
2023-02-09T09:12:44.999Z,1.80
2023-02-09T09:15:15.247Z,2.45
2023-02-09T09:17:44.547Z,2.10
2023-02-09T09:20:14.235Z,1.67
2023-02-09T09:22:43.680Z,2.35
2023-02-09T09:25:16.013Z,1.92
2023-02-09T09:27:45.290Z,2.05
2023-02-09T09:30:14.600Z,1.90
2023-02-09T09:32:43.884Z,1.88
2023-02-09T09:35:13.261Z,2.10
2023-02-09T09:37:42.524Z,2.80
2023-02-09T09:40:26.582Z,1.83
2023-02-09T09:43:00.422Z,2.22
2023-02-09T09:45:33.203Z,1.92
2023-02-09T09:48:02.861Z,1.98
2023-02-09T09:50:38.637Z,2.33
2023-02-09T09:53:23.685Z,2.35
2023-02-09T09:55:59.321Z,1.50
2023-02-09T09:58:30.992Z,1.75
2023-02-09T10:01:00.413Z,2.35
2023-02-09T10:03:29.688Z,2.25
2023-02-09T10:06:21.345Z,1.50
2023-02-09T10:09:24.095Z,2.08
2023-02-09T10:12:14.546Z,2.05
2023-02-09T10:14:43.819Z,1.52
2023-02-09T10:17:12.980Z,1.95
2023-02-09T10:19:42.303Z,1.88
2023-02-09T10:22:13.723Z,1.50
2023-02-09T10:24:43.281Z,1.85
2023-02-09T10:27:27.377Z,2.03
2023-02-09T10:30:19.039Z,1.90
2023-02-09T10:32:48.388Z,1.55
2023-02-09T10:35:29.462Z,1.45
2023-02-09T10:38:02.509Z,1.40
2023-02-09T10:40:38.958Z,1.50
2023-02-09T10:43:24.342Z,1.48
2023-02-09T10:46:12.760Z,1.58
2023-02-09T10:48:46.113Z,1.50
2023-02-09T10:51:29.154Z,1.52
2023-02-09T10:54:04.028Z,1.50
2023-02-09T10:56:42.147Z,1.70
2023-02-09T10:59:25.775Z,1.40
2023-02-09T11:01:59.873Z,1.30
2023-02-09T11:04:41.042Z,1.88
2023-02-09T11:07:15.151Z,1.83
2023-02-09T11:09:51.751Z,1.48
2023-02-09T11:12:22.878Z,1.80
2023-02-09T11:14:52.150Z,1.10
2023-02-09T11:17:37.456Z,0.93
2023-02-09T11:20:30.882Z,1.63
2023-02-09T11:23:34.268Z,1.38
2023-02-09T11:26:49.237Z,1.40
2023-02-09T11:29:42.229Z,1.25
2023-02-09T11:33:06.768Z,1.67
2023-02-09T11:35:54.519Z,1.08
2023-02-09T11:41:52.747Z,1.48
2023-02-09T11:44:52.685Z,1.15
2023-02-09T11:47:58.317Z,1.35
2023-02-09T11:50:59.371Z,1.60
2023-02-09T11:53:46.992Z,1.77
2023-02-09T11:56:28.208Z,1.45
2023-02-09T11:59:37.609Z,1.45
2023-02-09T12:02:18.504Z,1.50
2023-02-09T12:05:00.441Z,1.30
2023-02-09T12:08:07.621Z,1.23
2023-02-09T12:11:32.106Z,1.20
2023-02-09T12:14:42.343Z,1.55
2023-02-09T12:17:31.655Z,1.30
2023-02-09T12:20:02.701Z,1.35
2023-02-09T12:22:34.950Z,1.27
2023-02-09T12:25:18.808Z,1.15
2023-02-09T12:28:14.608Z,1.20
2023-02-09T12:30:44.060Z,1.20
2023-02-09T12:33:22.799Z,1.30
2023-02-09T12:36:18.314Z,1.33
2023-02-09T12:38:54.511Z,1.17
2023-02-09T12:41:29.926Z,1.58
2023-02-09T12:44:11.574Z,1.25
2023-02-09T12:46:54.537Z,1.48
2023-02-09T12:49:30.044Z,1.33
2023-02-09T12:52:02.245Z,1.45
2023-02-09T12:54:52.901Z,1.35
2023-02-09T12:57:22.343Z,1.52
2023-02-09T12:59:51.476Z,1.45
2023-02-09T13:02:37.048Z,1.52
2023-02-09T13:05:14.633Z,1.52
2023-02-09T13:08:11.869Z,1.35
2023-02-09T13:11:29.602Z,1.10
2023-02-09T13:14:07.842Z,1.13
2023-02-09T13:16:54.921Z,1.10
2023-02-09T13:20:21.746Z,1.20
2023-02-09T13:23:24.828Z,1.08
2023-02-09T13:26:16.107Z,1.27
2023-02-09T13:28:45.363Z,0.93
2023-02-09T13:31:38.071Z,1.35
2023-02-09T13:34:45.071Z,1.42
2023-02-09T13:37:25.823Z,1.15
2023-02-09T13:40:02.292Z,1.00
2023-02-09T13:42:36.785Z,1.20
2023-02-09T13:45:18.627Z,1.15
2023-02-09T13:47:48.037Z,1.15
2023-02-09T13:50:22.022Z,1.40
2023-02-09T13:52:52.101Z,1.13
2023-02-09T13:55:26.460Z,1.00
2023-02-09T13:58:12.317Z,1.00
2023-02-09T14:00:52.492Z,0.90
2023-02-09T14:03:57.910Z,0.95
2023-02-09T14:06:36.140Z,1.25
2023-02-09T14:09:22.713Z,1.20
2023-02-09T14:12:02.281Z,1.27
2023-02-09T14:14:58.408Z,1.27
2023-02-09T14:17:32.306Z,1.05
2023-02-09T14:20:02.257Z,1.30
2023-02-09T14:22:39.087Z,1.00
2023-02-09T14:25:14.318Z,1.05
2023-02-09T14:27:48.422Z,1.13
2023-02-09T14:30:26.042Z,1.10
2023-02-09T14:32:58.595Z,0.70
2023-02-09T14:35:39.434Z,0.98
2023-02-09T14:38:42.781Z,1.00
2023-02-09T14:41:34.478Z,1.10
2023-02-09T14:44:20.759Z,0.95
2023-02-09T14:46:57.413Z,1.02
2023-02-09T14:49:28.589Z,1.20
2023-02-09T14:52:14.798Z,1.20
2023-02-09T14:54:50.247Z,1.50
2023-02-09T14:57:20.299Z,1.20
2023-02-09T14:59:50.440Z,0.93
2023-02-09T15:02:24.387Z,0.70
2023-02-09T15:04:55.310Z,1.13
2023-02-09T15:07:35.540Z,1.15
2023-02-09T15:10:24.884Z,1.02
2023-02-09T15:12:56.110Z,0.90
2023-02-09T15:15:26.817Z,1.35
2023-02-09T15:17:59.363Z,0.75
2023-02-09T15:20:31.398Z,1.13
2023-02-09T15:23:00.909Z,1.13
2023-02-09T15:25:30.382Z,1.00
2023-02-09T15:28:01.519Z,0.98
2023-02-09T15:30:35.285Z,1.25
2023-02-09T15:33:06.350Z,1.10
2023-02-09T15:35:35.630Z,1.00
2023-02-09T15:38:04.933Z,0.90
2023-02-09T15:40:59.688Z,1.25
2023-02-09T15:43:48.194Z,1.20
2023-02-09T15:46:36.148Z,1.13
2023-02-09T15:49:08.015Z,1.50
2023-02-09T15:51:39.911Z,0.95
2023-02-09T15:54:22.404Z,1.45
2023-02-09T15:56:51.718Z,1.23
2023-02-09T15:59:23.824Z,1.27
2023-02-09T16:01:53.419Z,1.23
2023-02-09T16:04:22.671Z,1.00
2023-02-09T16:06:54.610Z,1.40
2023-02-09T16:09:29.360Z,1.17
2023-02-09T16:11:59.001Z,1.30
2023-02-09T16:14:28.663Z,1.40
2023-02-09T16:16:58.089Z,1.50
2023-02-09T16:19:27.444Z,1.58
2023-02-09T16:22:00.006Z,1.23
2023-02-09T16:24:31.209Z,1.00
2023-02-09T16:27:03.065Z,1.70
2023-02-09T16:29:32.296Z,1.15
2023-02-09T16:32:01.564Z,1.35
2023-02-09T16:34:30.770Z,1.73
2023-02-09T16:37:00.138Z,1.38
2023-02-09T16:39:31.026Z,1.83
2023-02-09T16:42:01.002Z,1.40
2023-02-09T16:44:33.157Z,1.33
2023-02-09T16:47:02.706Z,1.52
2023-02-09T16:49:40.832Z,1.50
2023-02-09T16:52:25.949Z,1.73
2023-02-09T16:55:00.900Z,1.42
2023-02-09T16:57:33.147Z,1.50
2023-02-09T17:00:02.602Z,1.67
2023-02-09T17:02:34.604Z,1.63
2023-02-09T17:05:21.342Z,1.73
2023-02-09T17:07:58.351Z,1.58
2023-02-09T17:10:33.886Z,1.83
2023-02-09T17:13:04.743Z,1.92
2023-02-09T17:15:53.960Z,1.40
2023-02-09T17:18:31.327Z,1.83
2023-02-09T17:21:14.153Z,1.70
2023-02-09T17:23:43.854Z,1.77
2023-02-09T17:26:14.024Z,1.77
2023-02-09T17:28:43.406Z,2.03
2023-02-09T17:31:52.850Z,2.20
2023-02-09T17:34:27.291Z,1.88
2023-02-09T17:36:58.128Z,2.28
2023-02-09T17:39:28.958Z,1.73
2023-02-09T17:42:00.644Z,1.80
2023-02-09T17:44:45.072Z,1.92
2023-02-09T17:47:20.649Z,2.25
2023-02-09T17:49:49.919Z,2.25
2023-02-09T17:52:20.732Z,2.45
2023-02-09T17:54:51.055Z,2.10
2023-02-09T17:57:21.145Z,1.85
2023-02-09T17:59:50.360Z,2.42
2023-02-09T18:02:20.548Z,2.20
2023-02-09T18:04:49.762Z,2.85
2023-02-09T18:07:20.874Z,2.28
2023-02-09T18:09:50.322Z,2.67
2023-02-09T18:12:24.649Z,2.28
2023-02-09T18:14:54.337Z,2.33
2023-02-09T18:17:23.692Z,2.25
2023-02-09T18:19:52.999Z,2.20
2023-02-09T18:22:22.665Z,2.42
2023-02-09T18:24:52.088Z,2.25
2023-02-09T18:27:21.783Z,2.47
2023-02-09T18:29:50.972Z,2.60
2023-02-09T18:32:21.202Z,2.72
2023-02-09T18:34:50.703Z,3.00
2023-02-09T18:37:19.967Z,3.10
2023-02-09T18:39:49.191Z,2.60
2023-02-09T18:42:18.463Z,3.25
2023-02-09T18:44:47.682Z,2.33
2023-02-09T18:47:16.853Z,2.25
2023-02-09T18:49:46.132Z,2.38
2023-02-09T18:52:17.176Z,2.90
2023-02-09T18:54:46.456Z,2.58
2023-02-09T18:57:15.691Z,2.75
2023-02-09T18:59:47.742Z,3.17
2023-02-09T19:02:17.379Z,2.83
2023-02-09T19:04:46.663Z,2.97
2023-02-09T19:07:16.439Z,2.63
2023-02-09T19:09:45.995Z,3.35
2023-02-09T19:12:15.304Z,3.70
2023-02-09T19:14:46.860Z,2.75
2023-02-09T19:17:21.125Z,3.28
2023-02-09T19:19:51.498Z,2.63
2023-02-09T19:22:21.926Z,2.85
2023-02-09T19:24:55.612Z,3.15
2023-02-09T19:27:26.984Z,2.88
2023-02-09T19:29:58.367Z,3.13
2023-02-09T19:32:27.892Z,3.15
2023-02-09T19:34:57.105Z,3.00
2023-02-09T19:37:26.438Z,3.00
2023-02-09T19:40:07.425Z,2.83
2023-02-09T19:42:37.142Z,3.22
2023-02-09T19:45:06.988Z,3.42
2023-02-09T19:47:37.832Z,3.35
2023-02-09T19:50:07.258Z,2.55
2023-02-09T19:52:38.284Z,3.53
2023-02-09T19:55:08.010Z,4.00
2023-02-09T19:57:37.358Z,2.97
2023-02-09T20:00:07.206Z,3.33
2023-02-09T20:02:39.240Z,3.78
2023-02-09T20:05:09.093Z,3.25
2023-02-09T20:07:38.359Z,3.78
2023-02-09T20:10:08.689Z,3.30
2023-02-09T20:12:37.953Z,3.25
2023-02-09T20:15:07.433Z,3.30
2023-02-09T20:17:36.852Z,3.22
2023-02-09T20:20:06.462Z,3.55
2023-02-09T20:22:36.782Z,3.97
2023-02-09T20:25:06.562Z,3.47
2023-02-09T20:27:35.860Z,3.20
2023-02-09T20:30:07.419Z,3.40
2023-02-09T20:32:37.088Z,4.03
2023-02-09T20:35:07.066Z,3.45
2023-02-09T20:37:36.281Z,3.80
2023-02-09T20:40:11.158Z,3.78
2023-02-09T20:43:00.333Z,4.07
2023-02-09T20:45:48.309Z,4.20
2023-02-09T20:48:18.048Z,3.22
2023-02-09T20:50:47.656Z,3.55
2023-02-09T20:53:17.182Z,3.75
2023-02-09T20:55:46.514Z,3.45
2023-02-09T20:58:15.810Z,4.35
2023-02-09T21:00:45.678Z,3.85
2023-02-09T21:03:15.056Z,3.97
2023-02-09T21:05:44.271Z,3.72
2023-02-09T21:08:13.616Z,3.92
2023-02-09T21:10:42.824Z,3.95
2023-02-09T21:13:12.365Z,3.85
2023-02-09T21:15:42.272Z,2.85
2023-02-09T21:18:11.571Z,3.92
2023-02-09T21:20:40.890Z,4.75
2023-02-09T21:23:10.354Z,3.90
2023-02-09T21:25:39.648Z,3.95
2023-02-09T21:28:09.046Z,3.97
2023-02-09T21:30:45.803Z,3.75
2023-02-09T21:33:15.246Z,3.50
2023-02-09T21:35:44.531Z,4.38
2023-02-09T21:38:13.888Z,3.83
2023-02-09T21:40:43.203Z,3.75
2023-02-09T21:43:12.666Z,3.72
2023-02-09T21:45:42.409Z,4.00
2023-02-09T21:48:11.640Z,4.15
2023-02-09T21:50:40.975Z,3.63
2023-02-09T21:53:10.193Z,3.05
2023-02-09T21:55:39.451Z,3.88
2023-02-09T21:58:08.688Z,4.10
2023-02-09T22:00:37.907Z,4.53
2023-02-09T22:03:07.974Z,4.43
2023-02-09T22:05:38.134Z,3.42
2023-02-09T22:08:07.383Z,4.32
2023-02-09T22:10:36.646Z,4.05
2023-02-09T22:13:08.586Z,3.95
2023-02-09T22:15:43.610Z,3.40
2023-02-09T22:18:13.877Z,3.63
2023-02-09T22:20:46.943Z,3.92
2023-02-09T22:23:20.004Z,4.03
2023-02-09T22:25:49.292Z,4.30
2023-02-09T22:28:18.475Z,3.75
2023-02-09T22:30:47.952Z,3.85
2023-02-09T22:33:17.433Z,3.55
2023-02-09T22:35:48.476Z,3.72
2023-02-09T22:38:17.810Z,4.18
2023-02-09T22:40:46.986Z,3.40
2023-02-09T22:43:18.048Z,3.92
2023-02-09T22:45:54.846Z,3.30
2023-02-09T22:48:24.078Z,4.05
2023-02-09T22:50:53.353Z,3.67
2023-02-09T22:53:22.562Z,4.13
2023-02-09T22:55:51.897Z,3.40
2023-02-09T22:58:21.116Z,4.57
2023-02-09T23:00:50.345Z,3.33
2023-02-09T23:03:19.526Z,3.28
2023-02-09T23:05:48.961Z,4.03
2023-02-09T23:08:18.378Z,3.42
2023-02-09T23:10:48.111Z,3.90
2023-02-09T23:13:17.367Z,3.88
2023-02-09T23:15:46.917Z,3.88
2023-02-09T23:18:16.397Z,4.30
2023-02-09T23:20:47.663Z,3.85
2023-02-09T23:23:16.969Z,4.55
2023-02-09T23:25:46.810Z,4.20
2023-02-09T23:28:16.728Z,3.97
2023-02-09T23:30:51.409Z,4.43
2023-02-09T23:33:20.760Z,4.00
2023-02-09T23:35:50.068Z,4.10
2023-02-09T23:38:20.055Z,4.03
2023-02-09T23:40:49.830Z,4.28
2023-02-09T23:43:19.071Z,4.13
2023-02-09T23:45:48.316Z,3.85
2023-02-09T23:48:17.646Z,4.35
2023-02-09T23:50:46.908Z,3.67
2023-02-09T23:53:16.219Z,4.55
2023-02-09T23:55:52.091Z,4.55
2023-02-09T23:58:21.587Z,4.20
